Terminal Aerodrome Forecast
Issued by NWS

Current Version | Previous Version | Text Only | Print | Product List | Glossary On
Versions: 1 2 3 4 5 6 7 8 9 10 11 12 13 14 15 16 17 18 19 20 21 22 23
000
FTAK31 PAJN 221700
TAFAYA
TAF
PAYA 221736Z 2218/2318 13007KT P6SM -SHRA VCTS SCT030CB BKN050
      OVC070
      TEMPO 2218/2222 20010G18KT 3SM +TSRA BR BKN030CB OVC050
     FM230200 10005KT P6SM VCSH BKN040 OVC070
     FM230800 VRB02KT P6SM SCT050 BKN080
     FM231500 00000KT P6SM SCT100
      AMD LTD TO CLD VIS AND WIND 2301/2310=

USA.gov is the U.S. government's official web portal to all federal, state and local government web resources and services.